| time (UTC) | temp F | wind direction | speed knots | gust knots | rain 1hr in | rain 24hr in | rain mn in | humidity % | barometer mb |
| 20260509234104 | 81 | 256 | 5.2 | 8.7 | 0.00 | 0.00 | 0.00 | 14 | 1014.3 |
| 20260509233104 | 80 | 251 | 1.7 | 7.8 | 0.00 | 0.00 | 0.00 | 17 | 1014.3 |
| 20260509232104 | 80 | 198 | 3.5 | 7.0 | 0.00 | 0.00 | 0.00 | 17 | 1014.3 |
| 20260509230104 | 80 | 285 | 0.9 | 6.1 | 0.00 | 0.00 | 0.00 | 19 | 1014.5 |
| 20260509225104 | 81 | 277 | 2.6 | 7.0 | 0.00 | 0.00 | 0.00 | 18 | 1014.6 |
| 20260509223104 | 80 | 340 | 2.6 | 6.1 | 0.00 | 0.00 | 0.00 | 18 | 1014.9 |
| 20260509222104 | 80 | 232 | 2.6 | 7.0 | 0.00 | 0.00 | 0.00 | 18 | 1015.0 |
| 20260509221104 | 80 | 253 | 3.5 | 7.8 | 0.00 | 0.00 | 0.00 | 19 | 1015.1 |
| 20260509220104 | 80 | 240 | 1.7 | 6.1 | 0.00 | 0.00 | 0.00 | 20 | 1015.2 |
| 20260509215103 | 79 | 210 | 1.7 | 7.0 | 0.00 | 0.00 | 0.00 | 21 | 1015.3 |
| 20260509214103 | 80 | 252 | 4.3 | 7.0 | 0.00 | 0.00 | 0.00 | 19 | 1015.4 |
| 20260509213104 | 79 | 268 | 4.3 | 7.8 | 0.00 | 0.00 | 0.00 | 19 | 1015.5 |
| 20260509212103 | 79 | 251 | 1.7 | 4.3 | 0.00 | 0.00 | 0.00 | 21 | 1015.6 |
| 20260509211103 | 78 | 274 | 3.5 | 7.0 | 0.00 | 0.00 | 0.00 | 21 | 1015.8 |
| 20260509210104 | 78 | 22 | 2.6 | 5.2 | 0.00 | 0.00 | 0.00 | 23 | 1015.9 |
| 20260509203103 | 77 | 322 | 1.7 | 7.0 | 0.00 | 0.00 | 0.00 | 24 | 1016.0 |
| 20260509201103 | 75 | 295 | 2.6 | 6.1 | 0.00 | 0.00 | 0.00 | 24 | 1016.4 |
| 20260509200104 | 75 | 327 | 1.7 | 4.3 | 0.00 | 0.00 | 0.00 | 24 | 1016.4 |
| 20260509195104 | 75 | 310 | 3.5 | 6.1 | 0.00 | 0.00 | 0.00 | 25 | 1016.4 |
| 20260509194104 | 74 | 3 | 0.9 | 7.8 | 0.00 | 0.00 | 0.00 | 26 | 1016.5 |
| 20260509192104 | 74 | 341 | 0.9 | 6.1 | 0.00 | 0.00 | 0.00 | 28 | 1016.9 |
| 20260509191103 | 74 | 269 | 2.6 | 6.1 | 0.00 | 0.00 | 0.00 | 29 | 1017.0 |
| 20260509190103 | 74 | 261 | 1.7 | 4.3 | 0.00 | 0.00 | 0.00 | 29 | 1017.0 |
| 20260509185103 | 73 | 247 | 0.9 | 2.6 | 0.00 | 0.00 | 0.00 | 32 | 1017.1 |
| 20260509181104 | 72 | 213 | 2.6 | 5.2 | 0.00 | 0.00 | 0.00 | 32 | 1017.4 |
| 20260509175104 | 71 | 196 | 1.7 | 4.3 | 0.00 | 0.00 | 0.00 | 33 | 1017.5 |
| 20260509174103 | 70 | 239 | 0.9 | 4.3 | 0.00 | 0.00 | 0.00 | 37 | 1017.5 |
| 20260509173103 | 69 | 187 | 2.6 | 6.1 | 0.00 | 0.00 | 0.00 | 37 | 1017.5 |
| 20260509172104 | 69 | 260 | 1.7 | 4.3 | 0.00 | 0.00 | 0.00 | 37 | 1017.5 |
| 20260509171104 | 69 | 106 | 0.9 | 2.6 | 0.00 | 0.00 | 0.00 | 37 | 1017.6 |
| 20260509170104 | 68 | 158 | 0.9 | 5.2 | 0.00 | 0.00 | 0.00 | 37 | 1017.6 |
| 20260509165104 | 67 | 191 | 0.9 | 5.2 | 0.00 | 0.00 | 0.00 | 35 | 1017.6 |
| 20260509164104 | 66 | 254 | 0.9 | 6.1 | 0.00 | 0.00 | 0.00 | 38 | 1017.6 |
| 20260509163104 | 66 | 173 | 0.9 | 1.7 | 0.00 | 0.00 | 0.00 | 35 | 1017.6 |
| 20260509162104 | 65 | 262 | 0.9 | 2.6 | 0.00 | 0.00 | 0.00 | 38 | 1017.6 |
| 20260509161103 | 64 | 274 | 0.9 | 2.6 | 0.00 | 0.00 | 0.00 | 38 | 1017.6 |
| 20260509160104 | 63 | 265 | 0.0 | 2.6 | 0.00 | 0.00 | 0.00 | 41 | 1017.5 |
| 20260509155104 | 62 | 151 | 0.9 | 2.6 | 0.00 | 0.00 | 0.00 | 43 | 1017.5 |
| 20260509154104 | 61 | 272 | 0.9 | 2.6 | 0.00 | 0.00 | 0.00 | 45 | 1017.6 |
| 20260509151103 | 55 | 319 | 0.9 | 2.6 | 0.00 | 0.00 | 0.00 | 53 | 1017.4 |
| 20260509150104 | 53 | 271 | 0.0 | 1.7 | 0.00 | 0.00 | 0.00 | 57 | 1017.3 |
| 20260509145104 | 52 | 304 | 0.0 | 0.0 | 0.00 | 0.00 | 0.00 | 58 | 1017.1 |
| 20260509143104 | 51 | 338 | 0.0 | 0.0 | 0.00 | 0.00 | 0.00 | 63 | 1017.2 |
| 20260509142104 | 50 | 6 | 0.0 | 0.0 | 0.00 | 0.00 | 0.00 | 63 | 1017.2 |
| 20260509141104 | 49 | 13 | 0.0 | 1.7 | 0.00 | 0.00 | 0.00 | 65 | 1017.1 |
| 20260509140103 | 48 | 42 | 0.0 | 1.7 | 0.00 | 0.00 | 0.00 | 66 | 1017.0 |
| 20260509135104 | 48 | 42 | 0.0 | 2.6 | 0.00 | 0.00 | 0.00 | 65 | 1017.0 |
| 20260509133104 | 47 | 108 | 0.0 | 2.6 | 0.00 | 0.00 | 0.00 | 68 | 1016.9 |
| 20260509131104 | 46 | 105 | 0.9 | 4.3 | 0.00 | 0.00 | 0.00 | 66 | 1016.7 |
| 20260509130104 | 46 | 96 | 0.9 | 5.2 | 0.00 | 0.00 | 0.00 | 66 | 1016.5 |
| 20260509125104 | 46 | 96 | 1.7 | 5.2 | 0.00 | 0.00 | 0.00 | 65 | 1016.5 |
| 20260509124104 | 46 | 103 | 1.7 | 5.2 | 0.00 | 0.00 | 0.00 | 65 | 1016.3 |
| 20260509123104 | 46 | 96 | 2.6 | 5.2 | 0.00 | 0.00 | 0.00 | 64 | 1016.2 |
| 20260509122103 | 47 | 116 | 2.6 | 4.3 | 0.00 | 0.00 | 0.00 | 64 | 1016.1 |
| 20260509121103 | 47 | 100 | 0.9 | 6.1 | 0.00 | 0.00 | 0.00 | 61 | 1016.1 |
| 20260509114104 | 48 | 126 | 1.7 | 5.2 | 0.00 | 0.00 | 0.00 | 59 | 1015.9 |
| 20260509112103 | 49 | 84 | 0.9 | 5.2 | 0.00 | 0.00 | 0.00 | 57 | 1015.8 |
| 20260509111103 | 49 | 152 | 1.7 | 6.1 | 0.00 | 0.00 | 0.00 | 57 | 1015.8 |
| 20260509110104 | 48 | 120 | 1.7 | 5.2 | 0.00 | 0.00 | 0.00 | 59 | 1015.7 |
| 20260509105104 | 49 | 102 | 1.7 | 6.1 | 0.00 | 0.00 | 0.00 | 57 | 1015.7 |
| 20260509104108 | 49 | 138 | 0.0 | 4.3 | 0.00 | 0.00 | 0.00 | 58 | 1015.5 |
| 20260509103103 | 49 | 101 | 0.9 | 4.3 | 0.00 | 0.00 | 0.00 | 56 | 1015.6 |
| 20260509102104 | 49 | 86 | 0.9 | 2.6 | 0.00 | 0.00 | 0.00 | 57 | 1015.5 |
| 20260509095104 | 51 | 169 | 0.0 | 1.7 | 0.00 | 0.00 | 0.00 | 54 | 1015.4 |
| 20260509094104 | 51 | 151 | 0.9 | 1.7 | 0.00 | 0.00 | 0.00 | 53 | 1015.2 |
| 20260509093104 | 51 | 183 | 0.9 | 2.6 | 0.00 | 0.00 | 0.00 | 53 | 1015.0 |
| 20260509092104 | 51 | 155 | 0.9 | 4.3 | 0.00 | 0.00 | 0.00 | 55 | 1014.9 |
| 20260509090104 | 51 | 179 | 0.0 | 0.9 | 0.00 | 0.00 | 0.00 | 56 | 1014.9 |
| 20260509084104 | 51 | 171 | 2.6 | 2.6 | 0.00 | 0.00 | 0.00 | 58 | 1015.0 |
| 20260509083104 | 51 | 176 | 0.0 | 2.6 | 0.00 | 0.00 | 0.00 | 58 | 1014.8 |
| 20260509082104 | 52 | 140 | 0.0 | 0.9 | 0.00 | 0.00 | 0.00 | 59 | 1014.8 |
| 20260509081104 | 52 | 133 | 0.0 | 0.9 | 0.00 | 0.00 | 0.00 | 57 | 1014.8 |
| 20260509080104 | 52 | 135 | 0.9 | 2.6 | 0.00 | 0.00 | 0.00 | 58 | 1014.8 |
| 20260509075104 | 52 | 169 | 2.6 | 5.2 | 0.00 | 0.00 | 0.00 | 59 | 1014.7 |
| 20260509074104 | 52 | 158 | 0.0 | 1.7 | 0.00 | 0.00 | 0.00 | 58 | 1014.6 |
| 20260509073104 | 53 | 114 | 0.0 | 0.9 | 0.00 | 0.00 | 0.00 | 56 | 1014.4 |
| 20260509072104 | 53 | 104 | 0.0 | 1.7 | 0.00 | 0.00 | 0.00 | 55 | 1014.3 |
| 20260509071103 | 54 | 186 | 0.0 | 0.9 | 0.00 | 0.00 | 0.00 | 54 | 1014.1 |
| 20260509064103 | 54 | 65 | 0.9 | 1.7 | 0.00 | 0.00 | 0.00 | 54 | 1013.6 |
| 20260509063104 | 55 | 167 | 0.9 | 2.6 | 0.00 | 0.00 | 0.00 | 54 | 1013.5 |
| 20260509061104 | 55 | 155 | 0.0 | 1.7 | 0.00 | 0.00 | 0.00 | 53 | 1013.4 |
| 20260509060104 | 56 | 163 | 0.0 | 2.6 | 0.00 | 0.00 | 0.00 | 52 | 1013.2 |
| 20260509055104 | 57 | 125 | 0.9 | 2.6 | 0.00 | 0.00 | 0.00 | 51 | 1013.0 |
| 20260509054104 | 58 | 107 | 0.0 | 2.6 | 0.00 | 0.00 | 0.00 | 50 | 1012.9 |
| 20260509053103 | 58 | 127 | 0.0 | 0.9 | 0.00 | 0.00 | 0.00 | 49 | 1012.9 |
| 20260509052105 | 59 | 165 | 0.0 | 2.6 | 0.00 | 0.00 | 0.00 | 48 | 1012.7 |
| 20260509051104 | 60 | 162 | 0.0 | 1.7 | 0.00 | 0.00 | 0.00 | 48 | 1012.4 |
| 20260509050104 | 60 | 151 | 0.9 | 2.6 | 0.00 | 0.00 | 0.00 | 47 | 1012.4 |
| 20260509045104 | 60 | 165 | 1.7 | 2.6 | 0.00 | 0.00 | 0.00 | 45 | 1012.3 |
| 20260509044104 | 61 | 169 | 0.9 | 1.7 | 0.00 | 0.00 | 0.00 | 43 | 1012.0 |
| 20260509043104 | 61 | 172 | 1.7 | 2.6 | 0.00 | 0.00 | 0.00 | 42 | 1011.8 |
| 20260509042103 | 62 | 165 | 0.9 | 1.7 | 0.00 | 0.00 | 0.00 | 41 | 1011.7 |
| 20260509041104 | 63 | 170 | 1.7 | 2.6 | 0.00 | 0.00 | 0.00 | 40 | 1011.5 |
| 20260509034103 | 67 | 157 | 0.0 | 2.6 | 0.00 | 0.00 | 0.00 | 35 | 1011.0 |
| 20260509033104 | 68 | 103 | 0.0 | 1.7 | 0.00 | 0.00 | 0.00 | 33 | 1010.7 |
| 20260509032104 | 70 | 99 | 0.0 | 1.7 | 0.00 | 0.00 | 0.00 | 30 | 1010.7 |
| 20260509031104 | 71 | 17 | 0.9 | 1.7 | 0.00 | 0.00 | 0.00 | 28 | 1010.6 |
| 20260509030104 | 72 | 5 | 0.0 | 1.7 | 0.00 | 0.00 | 0.00 | 27 | 1010.4 |
| 20260509025103 | 73 | 5 | 0.0 | 2.6 | 0.00 | 0.00 | 0.00 | 26 | 1010.2 |
| 20260509024104 | 74 | 22 | 0.9 | 1.7 | 0.00 | 0.00 | 0.00 | 26 | 1010.0 |
| 20260509023104 | 74 | 0 | 0.9 | 2.6 | 0.00 | 0.00 | 0.00 | 25 | 1009.9 |
| 20260509021104 | 76 | 341 | 1.7 | 2.6 | 0.00 | 0.00 | 0.00 | 24 | 1009.9 |
| 20260509020104 | 76 | 354 | 0.9 | 2.6 | 0.00 | 0.00 | 0.00 | 24 | 1009.8 |
| 20260509015104 | 77 | 353 | 2.6 | 5.2 | 0.00 | 0.00 | 0.00 | 22 | 1009.9 |
| 20260509014104 | 78 | 348 | 1.7 | 2.6 | 0.00 | 0.00 | 0.00 | 21 | 1009.9 |
| 20260509013103 | 78 | 346 | 0.9 | 4.3 | 0.00 | 0.00 | 0.00 | 22 | 1009.8 |
| 20260509005104 | 80 | 345 | 2.6 | 5.2 | 0.00 | 0.00 | 0.00 | 19 | 1009.9 |
| 20260509004103 | 80 | 348 | 1.7 | 5.2 | 0.00 | 0.00 | 0.00 | 19 | 1010.0 |
| 20260509003103 | 79 | 340 | 2.6 | 5.2 | 0.00 | 0.00 | 0.00 | 21 | 1010.0 |
| 20260509002104 | 78 | 338 | 3.5 | 5.2 | 0.00 | 0.00 | 0.00 | 21 | 1010.1 |
| 20260509001104 | 78 | 353 | 2.6 | 5.2 | 0.00 | 0.00 | 0.00 | 21 | 1010.2 |
| 20260509000104 | 78 | 353 | 2.6 | 7.0 | 0.00 | 0.00 | 0.00 | 20 | 1010.2 |
| 20260508235104 | 79 | 356 | 2.6 | 7.8 | 0.00 | 0.00 | 0.00 | 20 | 1010.3 |